createdAt,value
2023-04-03T00:00:29.002Z,2.59
2023-04-03T00:01:29.004Z,2.59
2023-04-03T00:02:29.061Z,3.29
2023-04-03T00:03:28.967Z,3.09
2023-04-03T00:04:28.992Z,2.09
2023-04-03T00:05:59.755Z,2.09
2023-04-03T00:06:59.733Z,2.20
2023-04-03T00:07:59.721Z,2.09
2023-04-03T00:08:59.725Z,2.79
2023-04-03T00:09:59.698Z,2.40
2023-04-03T00:10:59.705Z,3.00
2023-04-03T00:11:59.676Z,3.50
2023-04-03T00:12:59.677Z,2.59
2023-04-03T00:13:59.684Z,2.29
2023-04-03T00:14:59.665Z,2.20
2023-04-03T00:15:59.631Z,3.09
2023-04-03T00:16:59.681Z,2.20
2023-04-03T00:17:59.681Z,2.40
2023-04-03T00:18:59.604Z,2.00
2023-04-03T00:19:59.589Z,2.79
2023-04-03T00:20:59.591Z,3.09
2023-04-03T00:21:59.566Z,4.50
2023-04-03T00:22:59.572Z,3.00
2023-04-03T00:23:59.549Z,2.50
2023-04-03T00:24:59.545Z,3.50
2023-04-03T00:25:59.534Z,2.29
2023-04-03T00:26:59.528Z,3.00
2023-04-03T00:27:59.524Z,2.20
2023-04-03T00:28:59.503Z,2.50
2023-04-03T00:29:59.513Z,3.59
2023-04-03T00:30:59.524Z,3.09
2023-04-03T00:31:59.460Z,2.59
2023-04-03T00:32:59.492Z,2.50
2023-04-03T00:33:59.446Z,2.29
2023-04-03T00:34:59.436Z,3.00
2023-04-03T00:35:59.463Z,3.50
2023-04-03T00:36:59.530Z,2.09
2023-04-03T00:37:59.401Z,1.70
2023-04-03T00:38:59.403Z,2.79
2023-04-03T00:39:59.375Z,2.59
2023-04-03T00:40:59.374Z,3.79
2023-04-03T00:41:59.353Z,2.50
2023-04-03T00:42:59.368Z,2.79
2023-04-03T00:43:59.333Z,2.50
2023-04-03T00:44:59.333Z,3.70
2023-04-03T00:45:59.395Z,5.90
2023-04-03T00:46:59.307Z,4.09
2023-04-03T00:47:59.363Z,5.00
2023-04-03T00:48:59.290Z,2.79
2023-04-03T00:49:59.289Z,3.09
2023-04-03T00:50:59.270Z,2.50
2023-04-03T00:51:59.269Z,3.40
2023-04-03T00:52:59.239Z,2.90
2023-04-03T00:54:05.244Z,2.90
2023-04-03T00:54:59.225Z,2.40
2023-04-03T00:55:59.433Z,2.90
2023-04-03T00:56:59.235Z,2.40
2023-04-03T00:57:59.202Z,2.00
2023-04-03T00:58:59.176Z,2.90
2023-04-03T00:59:59.179Z,4.80
2023-04-03T01:01:05.190Z,3.79
2023-04-03T01:02:05.419Z,3.00
2023-04-03T01:02:59.174Z,3.90
2023-04-03T01:03:59.160Z,4.19
2023-04-03T01:04:59.119Z,3.00
2023-04-03T01:05:59.153Z,2.90
2023-04-03T01:06:59.098Z,2.40
2023-04-03T01:07:59.090Z,2.09
2023-04-03T01:08:59.073Z,3.59
2023-04-03T01:09:59.272Z,3.40
2023-04-03T01:10:59.049Z,2.70
2023-04-03T01:11:59.047Z,3.00
2023-04-03T01:12:59.036Z,3.29
2023-04-03T01:13:59.026Z,2.20
2023-04-03T01:14:59.020Z,2.09
2023-04-03T01:16:01.055Z,5.40
2023-04-03T01:16:59.009Z,3.79
2023-04-03T01:18:05.056Z,3.20
2023-04-03T01:18:58.968Z,3.79
2023-04-03T01:19:58.971Z,5.09
2023-04-03T01:20:58.945Z,3.09
2023-04-03T01:21:58.949Z,3.20
2023-04-03T01:22:58.931Z,4.30
2023-04-03T01:23:59.125Z,4.09
2023-04-03T01:24:58.907Z,5.30
2023-04-03T01:25:58.906Z,3.09
2023-04-03T01:26:58.898Z,2.90
2023-04-03T01:27:58.886Z,2.79
2023-04-03T01:28:58.907Z,4.00
2023-04-03T01:29:58.863Z,3.29
2023-04-03T01:30:58.840Z,3.70
2023-04-03T01:31:59.173Z,2.70
2023-04-03T01:32:58.868Z,2.90
2023-04-03T01:33:58.822Z,2.59
2023-04-03T01:34:58.797Z,3.79
2023-04-03T01:35:58.869Z,3.70
2023-04-03T01:36:58.791Z,2.90
2023-04-03T01:38:04.782Z,4.69
2023-04-03T01:38:58.761Z,3.90
2023-04-03T01:39:58.755Z,4.40
2023-04-03T01:40:58.738Z,3.79
2023-04-03T01:41:58.740Z,4.19
2023-04-03T01:43:04.719Z,3.40
2023-04-03T01:43:58.714Z,4.00
2023-04-03T01:44:58.697Z,4.50
2023-04-03T01:45:58.741Z,3.20
2023-04-03T01:46:58.674Z,4.50
2023-04-03T01:47:58.700Z,3.50
2023-04-03T01:48:58.677Z,3.29
2023-04-03T01:49:58.650Z,4.40
2023-04-03T01:50:58.630Z,3.79
2023-04-03T01:51:58.626Z,4.40
2023-04-03T01:52:58.618Z,4.40
2023-04-03T01:53:58.607Z,3.40
2023-04-03T01:54:58.591Z,2.90
2023-04-03T01:55:58.592Z,3.00
2023-04-03T01:56:58.582Z,2.90
2023-04-03T01:57:58.568Z,4.00
2023-04-03T01:58:58.547Z,4.69
2023-04-03T01:59:58.543Z,3.29
2023-04-03T02:00:58.576Z,4.40
2023-04-03T02:01:58.528Z,3.29
2023-04-03T02:02:58.545Z,5.40
2023-04-03T02:03:58.555Z,3.00
2023-04-03T02:04:58.509Z,4.50
2023-04-03T02:05:58.480Z,4.09
2023-04-03T02:06:58.473Z,3.40
2023-04-03T02:07:58.659Z,4.90
2023-04-03T02:08:58.439Z,3.50
2023-04-03T02:09:58.451Z,3.00
2023-04-03T02:10:58.424Z,3.79
2023-04-03T02:11:58.416Z,3.79
2023-04-03T02:12:58.400Z,3.90
2023-04-03T02:13:58.390Z,4.30
2023-04-03T02:14:58.396Z,3.00
2023-04-03T02:15:58.369Z,4.00
2023-04-03T02:16:58.450Z,3.90
2023-04-03T02:17:58.389Z,3.40
2023-04-03T02:18:58.329Z,3.09
2023-04-03T02:19:58.329Z,4.00
2023-04-03T02:20:58.335Z,3.20
2023-04-03T02:21:58.314Z,4.09
2023-04-03T02:22:58.286Z,3.59
2023-04-03T02:23:58.283Z,4.69
2023-04-03T02:24:58.270Z,5.80
2023-04-03T02:25:58.263Z,3.90
2023-04-03T02:26:58.248Z,5.09
2023-04-03T02:27:58.249Z,3.20
2023-04-03T02:28:58.227Z,4.80
2023-04-03T02:29:58.228Z,2.70
2023-04-03T02:30:58.230Z,4.30
2023-04-03T02:31:58.400Z,4.80
2023-04-03T02:32:58.240Z,4.19
2023-04-03T02:33:58.187Z,3.70
2023-04-03T02:34:58.180Z,3.59
2023-04-03T02:35:58.227Z,3.29
2023-04-03T02:36:58.170Z,3.50
2023-04-03T02:37:58.137Z,5.00
2023-04-03T02:38:58.123Z,4.40
2023-04-03T02:39:58.320Z,3.50
2023-04-03T02:40:58.106Z,4.59
2023-04-03T02:41:58.098Z,4.59
2023-04-03T02:42:58.081Z,3.79
2023-04-03T02:43:58.080Z,4.80
2023-04-03T02:44:59.389Z,4.09
2023-04-03T02:45:58.095Z,4.30
2023-04-03T02:46:58.050Z,4.00
2023-04-03T02:47:58.321Z,4.59
2023-04-03T02:48:58.021Z,3.29
2023-04-03T02:49:58.020Z,3.79
2023-04-03T02:50:58.207Z,4.40
2023-04-03T02:51:58.003Z,3.70
2023-04-03T02:52:58.009Z,5.30
2023-04-03T02:53:57.982Z,4.09
2023-04-03T02:54:57.962Z,4.00
2023-04-03T02:55:57.966Z,4.09
2023-04-03T02:56:58.149Z,2.40
2023-04-03T02:57:57.941Z,2.79
2023-04-03T02:58:57.924Z,4.59
2023-04-03T02:59:57.925Z,2.70
2023-04-03T03:00:57.910Z,4.19
2023-04-03T03:01:57.963Z,4.80
2023-04-03T03:02:57.932Z,6.19
2023-04-03T03:03:58.083Z,4.30
2023-04-03T03:05:03.951Z,4.69
2023-04-03T03:05:57.857Z,5.50
2023-04-03T03:06:58.045Z,4.59
2023-04-03T03:07:57.837Z,3.29
2023-04-03T03:08:57.843Z,4.69
2023-04-03T03:09:57.814Z,3.50
2023-04-03T03:10:57.794Z,4.40
2023-04-03T03:11:57.803Z,5.90
2023-04-03T03:12:57.772Z,4.19
2023-04-03T03:13:57.769Z,4.09
2023-04-03T03:14:57.759Z,3.70
2023-04-03T03:15:57.784Z,5.50
2023-04-03T03:17:03.739Z,3.59
2023-04-03T03:17:57.744Z,3.40
2023-04-03T03:18:57.959Z,4.50
2023-04-03T03:20:03.720Z,4.30
2023-04-03T03:20:57.908Z,4.09
2023-04-03T03:21:57.694Z,4.09
2023-04-03T03:22:57.678Z,4.50
2023-04-03T03:23:57.672Z,4.90
2023-04-03T03:24:57.677Z,3.40
2023-04-03T03:25:57.644Z,5.80
2023-04-03T03:26:57.634Z,5.50
2023-04-03T03:27:57.634Z,5.69
2023-04-03T03:28:57.620Z,4.40
2023-04-03T03:29:57.608Z,4.69
2023-04-03T03:30:57.584Z,3.90
2023-04-03T03:31:57.584Z,5.09
2023-04-03T03:32:57.799Z,3.29
2023-04-03T03:34:03.587Z,6.00
2023-04-03T03:34:57.564Z,4.80
2023-04-03T03:35:57.598Z,6.50
2023-04-03T03:36:57.561Z,3.59
2023-04-03T03:37:57.523Z,5.19
2023-04-03T04:34:56.921Z,5.80
2023-04-03T04:37:03.036Z,5.59
2023-04-03T04:37:56.862Z,4.40
2023-04-03T04:40:35.659Z,5.50
2023-04-03T04:41:35.651Z,7.50
2023-04-03T04:42:35.645Z,3.90
2023-04-03T04:43:35.627Z,6.59
2023-04-03T04:44:35.637Z,4.40
2023-04-03T04:45:35.914Z,7.30
2023-04-03T04:46:35.690Z,6.50
2023-04-03T04:47:35.617Z,5.19
2023-04-03T04:48:35.567Z,5.09
2023-04-03T04:49:35.561Z,6.30
2023-04-03T04:50:35.543Z,5.50
2023-04-03T04:51:48.333Z,5.50
2023-04-03T04:52:35.542Z,4.80
2023-04-03T04:53:35.719Z,4.00
2023-04-03T04:54:35.552Z,4.19
2023-04-03T04:55:35.824Z,7.69
2023-04-03T04:56:35.500Z,4.19
2023-04-03T04:57:41.520Z,5.40
2023-04-03T04:58:35.482Z,7.59
2023-04-03T04:59:35.445Z,5.59
2023-04-03T05:00:35.462Z,4.30
2023-04-03T05:01:35.450Z,8.80
2023-04-03T05:02:35.482Z,6.69
2023-04-03T05:03:35.402Z,6.00
2023-04-03T05:04:35.475Z,6.59
2023-04-03T05:05:41.412Z,7.00
2023-04-03T05:06:35.387Z,4.50
2023-04-03T05:07:35.363Z,4.40
2023-04-03T05:08:35.373Z,6.00
2023-04-03T05:09:35.361Z,5.69
2023-04-03T05:10:35.350Z,9.10
2023-04-03T05:11:35.322Z,13.39
2023-04-03T05:12:35.325Z,8.50
2023-04-03T05:13:35.312Z,8.39
2023-04-03T05:14:35.509Z,6.80
2023-04-03T05:15:35.614Z,7.30
2023-04-03T05:16:35.367Z,7.80
2023-04-03T05:17:35.282Z,6.59
2023-04-03T05:18:35.264Z,7.00
2023-04-03T05:19:35.251Z,5.69
2023-04-03T05:20:35.241Z,6.69
2023-04-03T05:21:35.232Z,11.30
2023-04-03T05:22:35.231Z,12.00
2023-04-03T05:23:35.212Z,9.80
2023-04-03T05:24:35.211Z,27.50
2023-04-03T05:25:35.460Z,35.90
2023-04-03T05:26:35.196Z,20.50
2023-04-03T05:27:35.165Z,21.79
2023-04-03T05:28:41.159Z,9.19
2023-04-03T05:29:41.815Z,15.00
2023-04-03T05:30:35.347Z,17.60
2023-04-03T05:31:35.179Z,12.00
2023-04-03T05:32:35.201Z,7.19
2023-04-03T05:33:35.101Z,21.39
2023-04-03T05:34:35.109Z,13.19
2023-04-03T05:35:35.434Z,12.19
2023-04-03T05:36:35.070Z,9.60
2023-04-03T05:37:35.058Z,7.80
2023-04-03T05:38:35.051Z,6.69
2023-04-03T05:39:35.048Z,12.50
2023-04-03T05:40:41.055Z,5.59
2023-04-03T05:41:35.015Z,5.30
2023-04-03T05:42:35.009Z,8.00
2023-04-03T05:43:35.003Z,7.50
2023-04-03T05:44:34.999Z,8.10
2023-04-03T05:45:41.045Z,5.90
2023-04-03T05:46:34.970Z,7.40
2023-04-03T05:47:35.033Z,6.50
2023-04-03T05:48:35.183Z,4.90
2023-04-03T05:49:34.929Z,4.80
2023-04-03T05:50:34.924Z,4.00
2023-04-03T05:51:34.908Z,5.40
2023-04-03T05:52:34.910Z,3.59
2023-04-03T05:53:34.885Z,3.50
2023-04-03T05:54:34.889Z,5.59
2023-04-03T05:55:34.873Z,4.69
2023-04-03T05:56:34.866Z,5.00
2023-04-03T05:57:34.888Z,3.90
2023-04-03T05:58:34.852Z,6.40
2023-04-03T05:59:34.839Z,3.20
2023-04-03T06:00:34.820Z,4.69
2023-04-03T06:01:35.013Z,3.59
2023-04-03T06:02:40.928Z,5.00
2023-04-03T06:03:40.945Z,3.50
2023-04-03T06:04:34.868Z,3.09
2023-04-03T06:05:34.765Z,4.19
2023-04-03T06:06:34.761Z,3.20
2023-04-03T06:07:34.945Z,3.50
2023-04-03T06:08:34.738Z,2.59
2023-04-03T06:09:34.724Z,3.00
2023-04-03T06:10:34.725Z,3.59
2023-04-03T06:11:34.704Z,2.09
2023-04-03T06:12:34.698Z,2.50
2023-04-03T06:13:34.679Z,3.50
2023-04-03T06:14:40.700Z,3.79
2023-04-03T06:15:34.678Z,2.09
2023-04-03T06:16:35.742Z,2.20
2023-04-03T06:17:34.669Z,3.20
2023-04-03T06:18:34.838Z,2.90
2023-04-03T06:19:34.733Z,3.00
2023-04-03T06:20:34.615Z,2.40
2023-04-03T06:21:34.605Z,2.40
2023-04-03T06:22:34.602Z,2.50
2023-04-03T06:23:40.594Z,3.59
2023-04-03T06:24:34.784Z,2.50
2023-04-03T06:25:34.758Z,3.90
2023-04-03T06:26:34.576Z,4.19
2023-04-03T06:27:34.548Z,6.30
2023-04-03T06:28:34.549Z,2.59
2023-04-03T06:29:34.528Z,3.40
2023-04-03T06:30:34.511Z,4.19
2023-04-03T06:31:34.531Z,3.00
2023-04-03T06:32:34.546Z,2.70
2023-04-03T06:33:34.469Z,2.09
2023-04-03T06:34:34.481Z,3.20
2023-04-03T06:35:34.538Z,2.79
2023-04-03T06:36:34.446Z,1.90
2023-04-03T06:37:34.430Z,2.29
2023-04-03T06:38:34.639Z,3.09
2023-04-03T06:39:34.405Z,3.09
2023-04-03T06:40:34.400Z,3.20
2023-04-03T06:41:35.980Z,3.50
2023-04-03T06:42:34.382Z,2.50
2023-04-03T06:43:34.820Z,3.70
2023-04-03T06:44:34.361Z,3.20
2023-04-03T06:45:34.399Z,2.59
2023-04-03T06:46:34.367Z,5.90
2023-04-03T06:47:34.345Z,2.90
2023-04-03T06:48:34.325Z,5.09
2023-04-03T06:49:34.302Z,7.19
2023-04-03T06:50:40.345Z,3.70
2023-04-03T06:51:34.276Z,3.09
2023-04-03T06:52:34.279Z,3.09
2023-04-03T06:53:40.267Z,2.90
2023-04-03T06:54:34.256Z,3.70
2023-04-03T06:55:34.242Z,3.00
2023-04-03T06:56:34.435Z,4.40
2023-04-03T06:57:34.462Z,5.40
2023-04-03T06:58:34.210Z,2.09
2023-04-03T06:59:34.194Z,4.50
2023-04-03T07:00:34.195Z,3.40
2023-04-03T07:01:34.176Z,2.90
2023-04-03T07:02:34.209Z,5.09
2023-04-03T07:03:35.553Z,7.19
2023-04-03T07:04:34.207Z,1.60
2023-04-03T07:05:34.133Z,4.19
2023-04-03T07:06:34.223Z,4.90
2023-04-03T07:07:36.171Z,4.59
2023-04-03T07:08:34.098Z,8.10
2023-04-03T07:09:34.100Z,2.59
2023-04-03T07:10:34.084Z,3.29
2023-04-03T07:11:34.351Z,5.59
2023-04-03T07:12:34.059Z,4.69
2023-04-03T07:13:34.049Z,4.90
2023-04-03T07:14:34.042Z,7.00
2023-04-03T07:15:34.029Z,2.90
2023-04-03T07:16:34.112Z,6.50
2023-04-03T07:17:34.065Z,4.50
2023-04-03T07:18:33.989Z,5.50
2023-04-03T07:19:40.231Z,2.70
2023-04-03T07:20:33.971Z,2.59
2023-04-03T07:21:33.970Z,3.79
2023-04-03T07:22:34.069Z,2.29
2023-04-03T07:23:33.941Z,3.50
2023-04-03T07:24:34.145Z,3.90
2023-04-03T07:25:33.922Z,2.09
2023-04-03T07:26:33.909Z,2.00
2023-04-03T07:27:33.907Z,4.19
2023-04-03T07:28:33.886Z,1.39
2023-04-03T07:29:33.882Z,1.70
2023-04-03T07:30:33.864Z,1.29
2023-04-03T07:31:33.878Z,1.70
2023-04-03T07:32:33.853Z,1.70
2023-04-03T07:33:33.838Z,1.60
2023-04-03T07:34:33.830Z,1.79
2023-04-03T07:35:33.848Z,3.00
2023-04-03T07:36:33.806Z,1.50
2023-04-03T07:37:33.794Z,1.70
2023-04-03T07:38:33.803Z,1.39
2023-04-03T07:39:33.774Z,1.39
2023-04-03T07:40:33.759Z,1.79
2023-04-03T07:41:33.758Z,2.40
2023-04-03T07:42:33.735Z,1.60
2023-04-03T07:43:33.736Z,2.20
2023-04-03T07:44:33.835Z,4.30
2023-04-03T07:45:33.753Z,2.09
2023-04-03T07:46:33.689Z,1.29
2023-04-03T07:47:33.717Z,3.70
2023-04-03T07:48:33.678Z,1.50
2023-04-03T07:49:33.669Z,3.00
2023-04-03T07:50:39.661Z,1.90
2023-04-03T07:51:33.646Z,1.79
2023-04-03T07:52:33.626Z,1.70
2023-04-03T07:53:33.626Z,3.70
2023-04-03T07:54:33.638Z,3.59
2023-04-03T07:55:35.000Z,1.60
2023-04-03T07:56:33.587Z,2.00
2023-04-03T07:57:33.700Z,1.79
2023-04-03T07:58:33.558Z,2.59
2023-04-03T07:59:33.558Z,2.59
2023-04-03T08:00:33.552Z,2.29
2023-04-03T08:01:33.533Z,2.20
2023-04-03T08:02:33.563Z,2.90
2023-04-03T08:03:33.612Z,2.50
2023-04-03T08:04:33.609Z,2.00
2023-04-03T08:05:33.486Z,1.90
2023-04-03T08:06:45.652Z,3.29
2023-04-03T08:07:34.518Z,2.70
2023-04-03T08:08:33.464Z,2.40
2023-04-03T08:09:33.444Z,1.79
2023-04-03T08:10:33.470Z,1.50
2023-04-03T08:11:33.420Z,1.39
2023-04-03T08:12:33.415Z,1.79
2023-04-03T08:13:33.400Z,2.59
2023-04-03T08:14:33.402Z,1.20
2023-04-03T08:15:33.384Z,1.70
2023-04-03T08:16:33.397Z,2.20
2023-04-03T08:17:33.367Z,3.40
2023-04-03T08:18:39.366Z,3.00
2023-04-03T08:19:33.336Z,2.20
2023-04-03T08:20:33.327Z,3.79
2023-04-03T08:21:39.319Z,2.29
2023-04-03T08:22:33.516Z,2.40
2023-04-03T08:23:33.295Z,2.09
2023-04-03T08:24:33.285Z,2.90
2023-04-03T08:25:33.272Z,1.29
2023-04-03T08:26:33.406Z,1.00
2023-04-03T08:27:33.448Z,3.20
2023-04-03T08:28:33.238Z,1.79
2023-04-03T08:29:34.376Z,2.29
2023-04-03T08:30:33.221Z,3.09
2023-04-03T08:31:33.200Z,1.90
2023-04-03T08:32:33.272Z,4.00
2023-04-03T08:33:33.178Z,2.70
2023-04-03T08:34:33.177Z,4.09
2023-04-03T08:35:33.196Z,2.20
2023-04-03T08:36:33.158Z,3.09
2023-04-03T08:37:39.153Z,3.50
2023-04-03T08:38:33.146Z,1.39
2023-04-03T08:39:33.121Z,1.79
2023-04-03T08:40:33.114Z,1.70
2023-04-03T08:41:33.098Z,2.90
2023-04-03T08:42:33.220Z,1.70
2023-04-03T08:43:33.090Z,1.70
2023-04-03T08:44:33.076Z,1.20
2023-04-03T08:45:33.061Z,1.70
2023-04-03T08:46:33.087Z,1.79
2023-04-03T08:47:33.082Z,2.29
2023-04-03T08:48:33.033Z,2.00
2023-04-03T08:49:33.038Z,2.00
2023-04-03T08:50:33.012Z,4.19
2023-04-03T08:51:32.997Z,2.29
2023-04-03T08:52:32.984Z,2.00
2023-04-03T08:53:32.973Z,3.20
2023-04-03T08:54:34.120Z,3.59
2023-04-03T08:55:32.949Z,2.29
2023-04-03T08:56:33.154Z,3.40
2023-04-03T08:57:33.088Z,1.60
2023-04-03T08:58:33.065Z,3.09
2023-04-03T08:59:32.909Z,2.90
2023-04-03T09:00:32.914Z,1.60
2023-04-03T09:01:32.919Z,3.00
2023-04-03T09:02:32.916Z,3.09
2023-04-03T09:03:32.911Z,3.59
2023-04-03T09:04:32.868Z,1.29
2023-04-03T09:05:39.030Z,2.79
2023-04-03T09:06:32.846Z,1.39
2023-04-03T09:07:32.832Z,2.20
2023-04-03T09:08:32.820Z,3.40
2023-04-03T09:09:32.806Z,1.90
2023-04-03T09:10:32.801Z,1.70
2023-04-03T09:11:32.779Z,3.20
2023-04-03T09:12:32.774Z,3.20
2023-04-03T09:13:32.758Z,1.90
2023-04-03T09:14:32.869Z,3.40
2023-04-03T09:15:39.000Z,1.60
2023-04-03T09:16:33.786Z,1.29
2023-04-03T09:17:32.736Z,3.00
2023-04-03T09:18:32.709Z,2.29
2023-04-03T09:19:32.713Z,0.90
2023-04-03T09:20:32.693Z,1.79
2023-04-03T09:21:32.662Z,1.50
2023-04-03T09:22:32.819Z,2.70
2023-04-03T09:23:32.646Z,1.60
2023-04-03T09:24:32.642Z,1.00
2023-04-03T09:25:32.630Z,2.00
2023-04-03T09:26:32.616Z,2.00
2023-04-03T09:27:32.645Z,1.50
2023-04-03T09:28:38.818Z,1.70
2023-04-03T09:29:33.620Z,1.39
2023-04-03T09:30:32.699Z,4.00
2023-04-03T09:31:32.582Z,1.70
2023-04-03T09:32:32.595Z,2.79
2023-04-03T09:33:32.537Z,0.90
2023-04-03T09:34:32.539Z,2.09
2023-04-03T09:35:46.653Z,3.20
2023-04-03T09:36:33.549Z,2.70
2023-04-03T09:37:32.489Z,5.00
2023-04-03T09:38:32.496Z,2.50
2023-04-03T09:39:32.470Z,2.59
2023-04-03T09:40:38.622Z,3.00
2023-04-03T09:41:32.451Z,2.50
2023-04-03T09:42:32.444Z,1.79
2023-04-03T09:43:32.433Z,1.39
2023-04-03T09:44:32.434Z,2.20
2023-04-03T09:45:32.408Z,1.90
2023-04-03T09:46:32.572Z,1.29
2023-04-03T09:47:32.406Z,3.40
2023-04-03T09:48:32.579Z,3.00
2023-04-03T09:49:32.371Z,1.50
2023-04-03T09:50:32.358Z,1.79
2023-04-03T09:51:32.348Z,2.50
2023-04-03T09:52:32.547Z,1.70
2023-04-03T09:53:32.362Z,1.70
2023-04-03T09:54:32.328Z,1.90
2023-04-03T09:55:32.308Z,2.59
2023-04-03T09:56:32.299Z,2.29
2023-04-03T09:57:32.373Z,4.69
2023-04-03T09:58:42.702Z,2.79
2023-04-03T09:59:33.301Z,2.20
2023-04-03T10:00:32.250Z,1.39
2023-04-03T10:01:32.409Z,1.90
2023-04-03T10:02:32.383Z,1.00
2023-04-03T10:03:34.485Z,1.20
2023-04-03T10:04:32.234Z,1.70
2023-04-03T10:05:32.189Z,1.79
2023-04-03T10:06:32.184Z,2.20
2023-04-03T10:07:32.190Z,3.09
2023-04-03T10:08:32.367Z,3.00
2023-04-03T10:09:32.146Z,1.50
2023-04-03T10:10:32.162Z,1.90
2023-04-03T10:11:32.125Z,2.79
2023-04-03T10:12:32.134Z,1.79
2023-04-03T10:13:34.087Z,1.60
2023-04-03T10:14:32.102Z,2.50
2023-04-03T10:15:32.096Z,2.79
2023-04-03T10:16:32.151Z,1.20
2023-04-03T10:17:38.271Z,2.29
2023-04-03T10:18:32.067Z,1.70
2023-04-03T10:19:32.049Z,1.60
2023-04-03T10:20:32.041Z,2.70
2023-04-03T10:21:32.031Z,4.00
2023-04-03T10:22:32.020Z,1.20
2023-04-03T10:23:32.005Z,1.29
2023-04-03T10:24:31.993Z,1.20
2023-04-03T10:25:31.973Z,4.40
2023-04-03T10:26:31.967Z,2.50
2023-04-03T10:27:37.967Z,1.50
2023-04-03T10:28:31.945Z,1.90
2023-04-03T10:29:32.338Z,3.90
2023-04-03T10:30:31.941Z,1.50
2023-04-03T10:31:31.942Z,2.40
2023-04-03T10:32:31.931Z,1.90
2023-04-03T10:33:32.021Z,1.39
2023-04-03T10:34:31.891Z,1.60
2023-04-03T10:35:31.897Z,1.20
2023-04-03T10:36:31.862Z,1.70
2023-04-03T10:37:31.848Z,4.50
2023-04-03T10:38:31.844Z,1.79
2023-04-03T10:39:31.819Z,2.70
2023-04-03T10:40:31.823Z,2.79
2023-04-03T10:41:31.801Z,2.50
2023-04-03T10:42:31.807Z,1.70
2023-04-03T10:43:31.782Z,1.39
2023-04-03T10:44:37.786Z,2.00
2023-04-03T10:45:31.762Z,1.90
2023-04-03T10:46:31.819Z,2.79
2023-04-03T10:47:33.783Z,2.40
2023-04-03T10:48:31.732Z,1.50
2023-04-03T10:49:31.845Z,2.09
2023-04-03T10:50:31.724Z,1.50
2023-04-03T10:51:31.698Z,1.29
2023-04-03T10:52:31.698Z,1.39
2023-04-03T10:53:31.681Z,2.50
2023-04-03T10:54:31.678Z,1.20
2023-04-03T10:55:31.659Z,1.90
2023-04-03T10:56:31.673Z,1.50
2023-04-03T10:57:31.687Z,2.09
2023-04-03T10:58:31.668Z,2.59
2023-04-03T10:59:32.029Z,1.39
2023-04-03T11:00:31.814Z,1.39
2023-04-03T11:01:31.653Z,2.09
2023-04-03T11:02:31.918Z,1.60
2023-04-03T11:03:31.628Z,2.79
2023-04-03T11:04:31.573Z,1.70
2023-04-03T11:05:31.886Z,2.90
2023-04-03T11:06:31.577Z,1.60
2023-04-03T11:07:31.540Z,1.39
2023-04-03T11:08:37.843Z,1.50
2023-04-03T11:09:31.525Z,2.20
2023-04-03T11:10:31.521Z,2.20
2023-04-03T11:11:31.497Z,1.39
2023-04-03T11:12:31.494Z,1.50
2023-04-03T11:13:31.677Z,2.59
2023-04-03T11:14:31.479Z,1.90
2023-04-03T11:15:31.458Z,1.60
2023-04-03T11:16:35.646Z,1.60
2023-04-03T11:17:32.524Z,1.60
2023-04-03T11:18:31.433Z,2.09
2023-04-03T11:19:31.421Z,1.60
2023-04-03T11:20:31.413Z,2.59
2023-04-03T11:21:31.529Z,2.70
2023-04-03T11:22:31.398Z,1.60
2023-04-03T11:23:48.643Z,1.60
2023-04-03T11:24:32.420Z,1.50
2023-04-03T11:25:31.362Z,2.20
2023-04-03T11:26:31.366Z,1.50
2023-04-03T11:27:31.337Z,1.70
2023-04-03T11:28:31.540Z,2.20
2023-04-03T11:29:35.472Z,1.39
2023-04-03T11:30:31.313Z,1.39
2023-04-03T11:31:31.555Z,1.50
2023-04-03T11:32:31.368Z,1.60
2023-04-03T11:33:31.276Z,1.70
2023-04-03T11:34:31.274Z,3.40
2023-04-03T11:35:31.267Z,3.00
2023-04-03T11:36:34.830Z,3.09
2023-04-03T11:37:31.359Z,2.90
2023-04-03T11:38:31.240Z,2.09
2023-04-03T11:39:31.217Z,2.59
2023-04-03T11:40:31.218Z,1.90
2023-04-03T11:41:31.199Z,2.59
2023-04-03T11:42:31.219Z,3.50
2023-04-03T11:43:31.182Z,3.70
2023-04-03T11:44:31.177Z,2.79
2023-04-03T11:45:31.376Z,4.59
2023-04-03T11:46:31.193Z,2.09
2023-04-03T11:47:31.154Z,2.29
2023-04-03T11:48:31.171Z,3.00
2023-04-03T11:49:31.123Z,2.20
2023-04-03T11:50:31.336Z,1.39
2023-04-03T11:51:37.109Z,2.50
2023-04-03T11:52:31.105Z,1.79
2023-04-03T11:53:31.207Z,3.20
2023-04-03T11:54:38.473Z,2.90
2023-04-03T11:55:32.110Z,2.50
2023-04-03T11:56:31.064Z,2.50
2023-04-03T11:57:31.086Z,3.40
2023-04-03T11:58:31.052Z,2.29
2023-04-03T11:59:31.025Z,2.70
2023-04-03T12:00:31.022Z,2.00
2023-04-03T12:01:31.004Z,1.79
2023-04-03T12:02:32.896Z,2.79
2023-04-03T12:03:31.120Z,2.09
2023-04-03T12:04:31.016Z,2.79
2023-04-03T12:05:30.973Z,1.79
2023-04-03T12:06:30.964Z,1.90
2023-04-03T12:07:30.948Z,1.39
2023-04-03T12:08:37.279Z,1.79
2023-04-03T12:09:30.933Z,4.90
2023-04-03T12:10:32.602Z,2.70
2023-04-03T12:11:30.915Z,1.79
2023-04-03T12:12:30.920Z,2.09
2023-04-03T12:13:30.894Z,2.70
2023-04-03T12:14:30.889Z,2.70
2023-04-03T12:15:30.872Z,3.50
2023-04-03T12:16:30.882Z,2.00
2023-04-03T12:17:30.887Z,2.40
2023-04-03T12:18:30.857Z,2.40
2023-04-03T12:19:41.292Z,1.50
2023-04-03T12:20:32.057Z,2.00
2023-04-03T12:21:30.883Z,1.70
2023-04-03T12:22:30.810Z,2.09
2023-04-03T12:23:30.817Z,3.70
2023-04-03T12:24:30.929Z,2.09
2023-04-03T12:25:30.787Z,1.29
2023-04-03T12:26:35.410Z,1.50
2023-04-03T12:27:31.909Z,1.39
2023-04-03T12:28:30.755Z,1.39
2023-04-03T12:29:30.783Z,1.29
2023-04-03T12:30:30.747Z,2.09
2023-04-03T12:31:30.771Z,2.09
2023-04-03T12:32:30.940Z,4.09
2023-04-03T12:33:30.980Z,1.29
2023-04-03T12:34:30.703Z,3.20
2023-04-03T12:35:30.736Z,2.40
2023-04-03T12:36:30.707Z,1.90
2023-04-03T12:37:36.688Z,1.60
2023-04-03T12:38:30.671Z,3.29
2023-04-03T12:39:30.670Z,1.20
2023-04-03T12:40:30.788Z,3.09
2023-04-03T12:41:30.852Z,2.79
2023-04-03T12:42:30.634Z,1.90
2023-04-03T12:43:30.631Z,1.70
2023-04-03T12:44:30.620Z,1.60
2023-04-03T12:45:30.667Z,2.29
2023-04-03T12:46:30.661Z,2.29
2023-04-03T12:47:30.616Z,2.09
2023-04-03T12:48:30.580Z,2.40
2023-04-03T12:49:30.578Z,1.90
2023-04-03T12:50:30.562Z,3.00
2023-04-03T12:51:30.762Z,2.20
2023-04-03T12:52:30.547Z,3.70
2023-04-03T12:53:30.545Z,1.50
2023-04-03T12:54:36.544Z,2.20
2023-04-03T12:55:30.532Z,1.70
2023-04-03T12:56:32.083Z,1.60
2023-04-03T12:57:30.570Z,2.50
2023-04-03T12:58:36.499Z,1.90
2023-04-03T12:59:30.505Z,3.79
2023-04-03T13:00:30.484Z,2.09
2023-04-03T13:01:30.520Z,1.60
2023-04-03T13:02:30.574Z,2.90
2023-04-03T13:03:30.661Z,2.20
2023-04-03T13:04:30.449Z,1.79
2023-04-03T13:05:30.444Z,2.29
2023-04-03T13:06:30.430Z,1.79
2023-04-03T13:07:30.431Z,1.20
2023-04-03T13:08:30.411Z,1.79
2023-04-03T13:09:36.424Z,1.39
2023-04-03T13:10:36.403Z,1.79
2023-04-03T13:11:30.395Z,2.40
2023-04-03T13:12:32.297Z,1.90
2023-04-03T13:13:36.381Z,1.60
2023-04-03T13:14:30.358Z,3.00
2023-04-03T13:15:30.363Z,1.79
2023-04-03T13:16:30.425Z,2.40
2023-04-03T13:17:30.391Z,1.79
2023-04-03T13:18:30.322Z,2.79
2023-04-03T13:19:30.342Z,1.60
2023-04-03T13:20:30.315Z,1.60
2023-04-03T13:21:30.310Z,1.20
2023-04-03T13:22:30.339Z,3.09
2023-04-03T13:23:30.293Z,2.90
2023-04-03T13:24:30.278Z,1.50
2023-04-03T13:25:30.281Z,1.39
2023-04-03T13:26:30.260Z,1.50
2023-04-03T13:27:30.267Z,2.00
2023-04-03T13:28:36.374Z,1.50
2023-04-03T13:29:31.531Z,1.10
2023-04-03T13:30:30.229Z,3.20
2023-04-03T13:31:30.302Z,5.00
2023-04-03T13:32:30.225Z,1.20
2023-04-03T13:33:30.217Z,1.50
2023-04-03T13:34:30.196Z,1.29
2023-04-03T13:35:36.212Z,1.50
2023-04-03T13:36:36.185Z,4.40
2023-04-03T13:37:30.183Z,1.70
2023-04-03T13:38:30.164Z,2.50
2023-04-03T13:39:30.161Z,2.59
2023-04-03T13:40:35.123Z,2.29
2023-04-03T13:41:31.169Z,2.09
2023-04-03T13:42:30.121Z,2.09
2023-04-03T13:43:30.296Z,2.59
2023-04-03T13:44:30.156Z,1.39
2023-04-03T13:45:30.141Z,1.20
2023-04-03T13:46:30.089Z,1.60
2023-04-03T13:47:30.116Z,1.20
2023-04-03T13:48:30.116Z,4.80
2023-04-03T13:49:30.080Z,1.90
2023-04-03T13:50:30.083Z,1.20
2023-04-03T13:51:30.058Z,1.70
2023-04-03T13:52:31.341Z,5.50
2023-04-03T13:53:30.029Z,1.39
2023-04-03T13:54:30.015Z,2.70
2023-04-03T13:55:30.021Z,1.79
2023-04-03T13:56:30.025Z,1.00
2023-04-03T13:57:30.013Z,2.40
2023-04-03T13:58:29.975Z,1.70
2023-04-03T13:59:29.993Z,1.39
2023-04-03T14:00:29.990Z,0.80
2023-04-03T14:01:32.059Z,2.79
2023-04-03T14:02:30.169Z,2.50
2023-04-03T14:03:29.940Z,1.90
2023-04-03T14:04:29.995Z,2.09
2023-04-03T14:05:29.918Z,1.60
2023-04-03T14:06:29.921Z,1.90
2023-04-03T14:07:29.896Z,1.39
2023-04-03T14:08:41.753Z,1.39
2023-04-03T14:09:30.927Z,1.60
2023-04-03T14:10:29.893Z,1.50
2023-04-03T14:11:29.901Z,2.20
2023-04-03T14:12:31.913Z,2.20
2023-04-03T14:13:35.858Z,1.90
2023-04-03T14:14:29.856Z,2.29
2023-04-03T14:15:29.852Z,0.90
2023-04-03T14:16:29.883Z,2.20
2023-04-03T14:17:29.842Z,1.90